Time;durP1;ratioP1;P1;durP2;ratioP2;P2;SDS_P1;SDS_P2;PMS_P1;PMS_P2;Temp;Humidity;BMP_temperature;BMP_pressure;BME280_temperature;BME280_humidity;BME280_pressure;Samples;Min_cycle;Max_cycle;Signal;HPM_P1;HPM_P2
2023/09/23 00:02:14;;;;;;;14.50;8.68;;;;;;;;;;5088308;28;20507;-70
2023/09/23 00:04:39;;;;;;;14.27;8.93;;;;;;;;;;5088084;28;20019;-69
2023/09/23 00:07:04;;;;;;;12.68;8.57;;;;;;;;;;5090633;28;20435;-70
2023/09/23 00:09:30;;;;;;;11.73;8.23;;;;;;;;;;5089341;28;20421;-69
2023/09/23 00:11:55;;;;;;;12.07;7.72;;;;;;;;;;5091863;28;20038;-69
2023/09/23 00:14:20;;;;;;;10.05;7.00;;;;;;;;;;5089366;28;20058;-69
2023/09/23 00:16:47;;;;;;;13.23;7.18;;;;;;;;;;5091946;28;20065;-69
2023/09/23 00:19:12;;;;;;;11.20;6.53;;;;;;;;;;5090621;28;20028;-69
2023/09/23 00:21:38;;;;;;;11.00;5.70;;;;;;;;;;5085675;28;20062;-69
2023/09/23 00:24:06;;;;;;;9.20;5.75;;;;;;;;;;5088956;28;20024;-69
2023/09/23 00:26:32;;;;;;;10.63;5.85;;;;;;;;;;5082268;28;20020;-70
2023/09/23 00:28:58;;;;;;;10.18;6.10;;;;;;;;;;5087048;28;20073;-69
2023/09/23 00:31:24;;;;;;;10.00;6.10;;;;;;;;;;5088063;28;20418;-68
2023/09/23 00:33:49;;;;;;;9.15;5.30;;;;;;;;;;5067893;28;20028;-68
2023/09/23 00:36:15;;;;;;;7.20;4.40;;;;;;;;;;5076135;28;20493;-69
2023/09/23 00:38:40;;;;;;;9.07;4.82;;;;;;;;;;5072436;28;20498;-68
2023/09/23 00:41:06;;;;;;;13.30;4.45;;;;;;;;;;5085042;28;20482;-69
2023/09/23 00:43:34;;;;;;;8.18;4.40;;;;;;;;;;5074783;28;20021;-68
2023/09/23 00:46:00;;;;;;;7.72;4.28;;;;;;;;;;5071552;28;20075;-68
2023/09/23 00:48:26;;;;;;;9.00;4.28;;;;;;;;;;5079930;28;20496;-68
2023/09/23 00:50:53;;;;;;;6.75;3.78;;;;;;;;;;5086421;28;20027;-68
2023/09/23 00:53:20;;;;;;;6.55;3.63;;;;;;;;;;5088595;28;20531;-69
2023/09/23 00:55:47;;;;;;;6.32;3.30;;;;;;;;;;5089951;28;20081;-70
2023/09/23 00:58:14;;;;;;;8.10;3.53;;;;;;;;;;5082444;28;20021;-70
2023/09/23 01:00:43;;;;;;;5.00;2.95;;;;;;;;;;5087247;28;20016;-69
2023/09/23 01:03:12;;;;;;;6.93;3.22;;;;;;;;;;5080487;28;20028;-70
2023/09/23 01:05:39;;;;;;;13.18;2.88;;;;;;;;;;5087106;28;20118;-69
2023/09/23 01:08:05;;;;;;;5.20;2.92;;;;;;;;;;5061733;28;20032;-69
2023/09/23 01:10:30;;;;;;;5.25;2.95;;;;;;;;;;5079321;28;20024;-69
2023/09/23 01:12:57;;;;;;;6.60;2.90;;;;;;;;;;5083498;28;20024;-68
2023/09/23 01:15:25;;;;;;;5.93;3.00;;;;;;;;;;5074546;28;20149;-68
2023/09/23 01:17:53;;;;;;;6.18;2.90;;;;;;;;;;5075269;28;20042;-67
2023/09/23 01:20:19;;;;;;;5.40;2.88;;;;;;;;;;5087940;28;20118;-68
2023/09/23 01:22:47;;;;;;;7.65;3.00;;;;;;;;;;5088387;28;20099;-67
2023/09/23 01:25:12;;;;;;;4.60;2.60;;;;;;;;;;5085149;28;20020;-68
2023/09/23 01:27:37;;;;;;;9.23;2.78;;;;;;;;;;5076433;28;20032;-67
2023/09/23 01:30:04;;;;;;;8.38;3.15;;;;;;;;;;5068025;28;20413;-68
2023/09/23 01:32:35;;;;;;;5.57;2.70;;;;;;;;;;5079187;28;20024;-68
2023/09/23 01:35:03;;;;;;;6.95;2.60;;;;;;;;;;5077488;28;20093;-68
2023/09/23 01:37:29;;;;;;;6.20;2.38;;;;;;;;;;5079129;28;20024;-68
2023/09/23 01:39:54;;;;;;;4.50;2.30;;;;;;;;;;5092122;28;20032;-69
2023/09/23 01:42:20;;;;;;;8.98;2.83;;;;;;;;;;5094185;28;20024;-70
2023/09/23 01:44:46;;;;;;;5.45;2.50;;;;;;;;;;5092990;28;20533;-70
2023/09/23 01:47:11;;;;;;;6.50;2.20;;;;;;;;;;5092272;28;20020;-68
2023/09/23 01:49:37;;;;;;;8.13;2.22;;;;;;;;;;5090451;28;20020;-68
2023/09/23 01:52:03;;;;;;;5.60;2.60;;;;;;;;;;5088991;28;20460;-68
2023/09/23 01:54:29;;;;;;;4.88;2.38;;;;;;;;;;5092175;28;20046;-69
2023/09/23 01:56:54;;;;;;;5.07;2.30;;;;;;;;;;5091022;28;21308;-68
2023/09/23 01:59:20;;;;;;;6.43;2.30;;;;;;;;;;5091449;28;20409;-68
2023/09/23 02:01:45;;;;;;;6.07;2.20;;;;;;;;;;5090127;28;20416;-69
2023/09/23 02:04:11;;;;;;;4.43;2.42;;;;;;;;;;5091769;28;20115;-68
2023/09/23 02:06:40;;;;;;;4.72;2.40;;;;;;;;;;5090169;28;20024;-68
2023/09/23 02:09:08;;;;;;;4.32;1.92;;;;;;;;;;5088763;28;20119;-69
2023/09/23 02:11:34;;;;;;;4.30;1.92;;;;;;;;;;5084024;28;20024;-68
2023/09/23 02:14:01;;;;;;;4.30;1.77;;;;;;;;;;5089956;28;20435;-69
2023/09/23 02:16:26;;;;;;;5.18;1.98;;;;;;;;;;5064078;28;20035;-68
2023/09/23 02:18:51;;;;;;;10.45;2.40;;;;;;;;;;5083102;28;20024;-71
2023/09/23 02:21:18;;;;;;;4.82;2.40;;;;;;;;;;5084813;28;20020;-70
2023/09/23 02:23:45;;;;;;;7.32;2.08;;;;;;;;;;5085052;28;20080;-68
2023/09/23 02:26:11;;;;;;;4.25;2.00;;;;;;;;;;5080391;28;20063;-68
2023/09/23 02:28:37;;;;;;;4.18;1.60;;;;;;;;;;5083713;28;20031;-68
2023/09/23 02:31:02;;;;;;;4.53;2.22;;;;;;;;;;5080229;28;20024;-68
2023/09/23 02:33:29;;;;;;;5.97;2.08;;;;;;;;;;5080739;28;20130;-68
2023/09/23 02:35:54;;;;;;;3.38;1.58;;;;;;;;;;5082083;28;20043;-68
2023/09/23 02:38:21;;;;;;;3.42;1.80;;;;;;;;;;5091515;28;20490;-69
2023/09/23 02:40:47;;;;;;;5.78;1.88;;;;;;;;;;5090541;28;20036;-69
2023/09/23 02:43:13;;;;;;;5.70;1.80;;;;;;;;;;5090285;28;20028;-69
2023/09/23 02:45:38;;;;;;;5.03;1.80;;;;;;;;;;5092964;28;20020;-68
2023/09/23 02:48:04;;;;;;;3.88;2.00;;;;;;;;;;5092298;28;20024;-68
2023/09/23 02:50:30;;;;;;;5.63;1.90;;;;;;;;;;5080852;28;20032;-68
2023/09/23 02:52:55;;;;;;;7.45;2.25;;;;;;;;;;5058499;28;20513;-69
2023/09/23 02:55:20;;;;;;;6.43;2.17;;;;;;;;;;5093184;28;20119;-69
2023/09/23 02:57:49;;;;;;;6.35;2.33;;;;;;;;;;5085578;28;20078;-68
2023/09/23 03:00:18;;;;;;;3.90;1.92;;;;;;;;;;5075957;28;20086;-68
2023/09/23 03:02:45;;;;;;;5.28;2.03;;;;;;;;;;5074145;28;20502;-68
2023/09/23 03:05:16;;;;;;;4.30;2.17;;;;;;;;;;5072073;28;20111;-69
2023/09/23 03:07:42;;;;;;;7.13;2.03;;;;;;;;;;5080489;28;20484;-69
2023/09/23 03:10:12;;;;;;;5.53;2.15;;;;;;;;;;5078154;28;20021;-69
2023/09/23 03:12:43;;;;;;;7.75;2.13;;;;;;;;;;5090242;28;20024;-68
2023/09/23 03:15:14;;;;;;;6.63;2.65;;;;;;;;;;5083956;28;20032;-68
2023/09/23 03:17:39;;;;;;;9.52;2.28;;;;;;;;;;5086359;28;20028;-68
2023/09/23 03:20:10;;;;;;;5.03;2.42;;;;;;;;;;5089566;28;20016;-69
2023/09/23 03:22:36;;;;;;;4.72;2.10;;;;;;;;;;5079887;28;20158;-69
2023/09/23 03:25:01;;;;;;;3.55;1.88;;;;;;;;;;5079696;28;20500;-68
2023/09/23 03:27:28;;;;;;;5.88;2.67;;;;;;;;;;5080237;28;20387;-69
2023/09/23 03:29:54;;;;;;;4.82;2.33;;;;;;;;;;5074093;28;20032;-68
2023/09/23 03:32:20;;;;;;;6.18;2.45;;;;;;;;;;5074031;28;20032;-69
2023/09/23 03:34:50;;;;;;;5.93;2.65;;;;;;;;;;5075309;28;20027;-68
2023/09/23 03:37:15;;;;;;;7.97;2.28;;;;;;;;;;5074168;28;20032;-69
2023/09/23 03:39:41;;;;;;;4.85;2.20;;;;;;;;;;5075239;28;20458;-69
2023/09/23 03:42:06;;;;;;;4.57;2.70;;;;;;;;;;5072520;28;20032;-68
2023/09/23 03:44:35;;;;;;;4.43;2.30;;;;;;;;;;5076790;28;20052;-69
2023/09/23 03:47:03;;;;;;;5.80;2.90;;;;;;;;;;5085450;28;20032;-68
2023/09/23 03:49:31;;;;;;;7.70;2.80;;;;;;;;;;5076826;28;20016;-68
2023/09/23 03:51:56;;;;;;;5.55;2.67;;;;;;;;;;5082096;28;20106;-69
2023/09/23 03:54:23;;;;;;;5.60;2.17;;;;;;;;;;5083126;28;20079;-68
2023/09/23 03:56:48;;;;;;;5.90;2.80;;;;;;;;;;5086981;28;20032;-68
2023/09/23 03:59:13;;;;;;;6.45;2.63;;;;;;;;;;5085639;28;20386;-68
2023/09/23 04:01:39;;;;;;;5.15;2.38;;;;;;;;;;5082215;28;20094;-69
2023/09/23 04:04:06;;;;;;;7.60;2.78;;;;;;;;;;5088544;28;20028;-68
2023/09/23 04:06:33;;;;;;;7.78;2.30;;;;;;;;;;5079293;28;20135;-68
2023/09/23 04:08:59;;;;;;;5.43;2.72;;;;;;;;;;5084713;28;20017;-70
2023/09/23 04:11:24;;;;;;;8.73;3.00;;;;;;;;;;5091812;28;20059;-67
2023/09/23 04:13:50;;;;;;;5.22;2.80;;;;;;;;;;5085856;28;20028;-68
2023/09/23 04:16:15;;;;;;;8.30;2.60;;;;;;;;;;5090377;28;20413;-68
2023/09/23 04:18:41;;;;;;;4.88;2.33;;;;;;;;;;5088641;28;20016;-70
2023/09/23 04:21:08;;;;;;;5.72;2.80;;;;;;;;;;5081536;28;20037;-68
2023/09/23 04:23:34;;;;;;;9.00;3.42;;;;;;;;;;5072541;28;20495;-68
2023/09/23 04:26:02;;;;;;;6.88;2.92;;;;;;;;;;5090881;28;20062;-68
2023/09/23 04:28:27;;;;;;;4.70;2.90;;;;;;;;;;5073102;28;20029;-68
2023/09/23 04:30:53;;;;;;;4.95;2.58;;;;;;;;;;5078455;28;20020;-68
2023/09/23 04:33:19;;;;;;;5.22;2.95;;;;;;;;;;5087246;28;20153;-68
2023/09/23 04:35:44;;;;;;;4.63;2.85;;;;;;;;;;5090740;28;20115;-68
2023/09/23 04:38:10;;;;;;;7.55;2.92;;;;;;;;;;5082960;28;20095;-68
2023/09/23 04:40:35;;;;;;;3.92;2.25;;;;;;;;;;5078014;28;20024;-68
2023/09/23 04:43:04;;;;;;;8.95;2.47;;;;;;;;;;5084260;28;20020;-68
2023/09/23 04:45:29;;;;;;;6.70;2.45;;;;;;;;;;5086758;28;20020;-68
2023/09/23 04:47:55;;;;;;;5.13;3.10;;;;;;;;;;5084294;28;20039;-67
2023/09/23 04:50:23;;;;;;;5.85;3.15;;;;;;;;;;5081061;28;20031;-69
2023/09/23 04:52:50;;;;;;;6.65;3.00;;;;;;;;;;5090484;28;20645;-69
2023/09/23 04:55:15;;;;;;;9.10;2.97;;;;;;;;;;5088642;28;20103;-69
2023/09/23 04:57:40;;;;;;;6.43;2.70;;;;;;;;;;5081371;28;20096;-69
2023/09/23 05:00:09;;;;;;;5.22;2.72;;;;;;;;;;5082766;28;20059;-69
2023/09/23 05:02:34;;;;;;;11.48;3.30;;;;;;;;;;5086699;28;20397;-69
2023/09/23 05:04:59;;;;;;;5.43;2.25;;;;;;;;;;5077990;28;20031;-69
2023/09/23 05:07:25;;;;;;;5.55;3.20;;;;;;;;;;5072899;28;20036;-69
2023/09/23 05:09:50;;;;;;;4.45;2.65;;;;;;;;;;5072268;28;20016;-69
2023/09/23 05:12:15;;;;;;;4.60;2.80;;;;;;;;;;5072206;28;20614;-69
2023/09/23 05:14:42;;;;;;;7.05;2.92;;;;;;;;;;5071976;28;20040;-69
2023/09/23 05:17:10;;;;;;;5.68;3.08;;;;;;;;;;5078134;28;20091;-69
2023/09/23 05:19:35;;;;;;;6.32;3.13;;;;;;;;;;5083607;28;20028;-69
2023/09/23 05:22:01;;;;;;;7.65;3.47;;;;;;;;;;5078581;28;20406;-69
2023/09/23 05:24:27;;;;;;;7.40;3.03;;;;;;;;;;5080557;28;20463;-69
2023/09/23 05:26:54;;;;;;;11.95;3.97;;;;;;;;;;5068996;28;20028;-69
2023/09/23 05:29:20;;;;;;;8.38;3.30;;;;;;;;;;5080320;28;20114;-68
2023/09/23 05:31:45;;;;;;;8.20;3.33;;;;;;;;;;5072375;28;20111;-68
2023/09/23 05:34:11;;;;;;;7.88;3.88;;;;;;;;;;5070591;28;20033;-69
2023/09/23 05:36:36;;;;;;;6.97;3.40;;;;;;;;;;5077307;28;20039;-69
2023/09/23 05:39:03;;;;;;;10.18;4.00;;;;;;;;;;5072715;28;20123;-68
2023/09/23 05:41:29;;;;;;;10.57;3.85;;;;;;;;;;5086556;28;20032;-69
2023/09/23 05:43:54;;;;;;;8.50;3.58;;;;;;;;;;5078543;28;20105;-68
2023/09/23 05:46:20;;;;;;;8.43;3.97;;;;;;;;;;5074579;28;20489;-68
2023/09/23 05:48:48;;;;;;;11.20;3.90;;;;;;;;;;5082474;28;20028;-68
2023/09/23 05:51:14;;;;;;;5.78;3.17;;;;;;;;;;5093566;28;20016;-68
2023/09/23 05:53:40;;;;;;;7.68;3.45;;;;;;;;;;5094344;28;20028;-68
2023/09/23 05:56:05;;;;;;;7.72;3.35;;;;;;;;;;5089040;28;20038;-68
2023/09/23 05:58:30;;;;;;;7.15;3.30;;;;;;;;;;5071478;28;20496;-68
2023/09/23 06:00:56;;;;;;;5.82;2.75;;;;;;;;;;5080944;28;20023;-68
2023/09/23 06:03:21;;;;;;;10.23;3.60;;;;;;;;;;5080715;28;20031;-68
2023/09/23 06:05:46;;;;;;;7.30;2.95;;;;;;;;;;5075751;28;20411;-68
2023/09/23 06:08:15;;;;;;;7.22;2.47;;;;;;;;;;5082076;28;20082;-68
2023/09/23 06:10:40;;;;;;;7.70;3.20;;;;;;;;;;5075960;28;20037;-68
2023/09/23 06:13:06;;;;;;;6.10;3.15;;;;;;;;;;5079753;28;20036;-68
2023/09/23 06:15:32;;;;;;;6.63;2.55;;;;;;;;;;5085085;28;20027;-68
2023/09/23 06:17:57;;;;;;;9.48;3.13;;;;;;;;;;5075532;28;20031;-68
2023/09/23 06:20:22;;;;;;;9.57;3.65;;;;;;;;;;5074553;28;20021;-68
2023/09/23 06:22:47;;;;;;;11.30;2.97;;;;;;;;;;5063248;28;20413;-68
2023/09/23 06:25:13;;;;;;;6.40;2.92;;;;;;;;;;5086730;28;20028;-68
2023/09/23 06:27:38;;;;;;;6.47;3.22;;;;;;;;;;5093661;28;20378;-68
2023/09/23 06:30:05;;;;;;;7.15;3.58;;;;;;;;;;5093257;28;20027;-68
2023/09/23 06:32:31;;;;;;;8.25;3.40;;;;;;;;;;5087649;28;20020;-68
2023/09/23 06:34:56;;;;;;;5.60;2.80;;;;;;;;;;5088086;28;20040;-68
2023/09/23 06:37:22;;;;;;;4.55;2.95;;;;;;;;;;5083115;28;20078;-68
2023/09/23 06:39:47;;;;;;;8.25;3.25;;;;;;;;;;5084306;28;20016;-68
2023/09/23 06:42:12;;;;;;;10.10;3.13;;;;;;;;;;5083195;28;20024;-67
2023/09/23 06:44:38;;;;;;;9.43;3.15;;;;;;;;;;5084575;28;20478;-68
2023/09/23 06:47:03;;;;;;;5.75;3.70;;;;;;;;;;5064864;28;20020;-68
2023/09/23 06:49:28;;;;;;;10.82;3.20;;;;;;;;;;5085631;28;20557;-68
2023/09/23 06:51:54;;;;;;;7.25;3.35;;;;;;;;;;5076675;28;20990;-75
2023/09/23 06:54:19;;;;;;;6.82;2.90;;;;;;;;;;5086976;28;20024;-68
2023/09/23 06:56:44;;;;;;;6.40;3.35;;;;;;;;;;5092826;28;20548;-68
2023/09/23 06:59:10;;;;;;;10.10;3.78;;;;;;;;;;5091312;28;20051;-68
2023/09/23 07:01:35;;;;;;;8.02;3.60;;;;;;;;;;5092876;28;20132;-68
2023/09/23 07:04:02;;;;;;;5.97;3.40;;;;;;;;;;5092406;28;20032;-69
2023/09/23 07:06:27;;;;;;;10.25;3.80;;;;;;;;;;5082835;28;20082;-68
2023/09/23 07:08:52;;;;;;;6.03;2.92;;;;;;;;;;5082580;28;20036;-68
2023/09/23 07:11:17;;;;;;;7.03;3.35;;;;;;;;;;5083032;28;20111;-68
2023/09/23 07:13:43;;;;;;;9.48;3.30;;;;;;;;;;5075515;28;20043;-69
2023/09/23 07:16:14;;;;;;;11.88;3.65;;;;;;;;;;5074753;28;20024;-69
2023/09/23 07:18:39;;;;;;;7.30;3.60;;;;;;;;;;5075237;28;20435;-68
2023/09/23 07:21:05;;;;;;;7.47;3.35;;;;;;;;;;5083747;28;20107;-68
2023/09/23 07:23:30;;;;;;;11.13;3.55;;;;;;;;;;5076807;28;20099;-68
2023/09/23 07:25:55;;;;;;;6.22;3.17;;;;;;;;;;5073327;28;20487;-69
2023/09/23 07:28:20;;;;;;;7.43;3.13;;;;;;;;;;5073187;28;20065;-67
2023/09/23 07:30:46;;;;;;;8.18;4.03;;;;;;;;;;5073151;28;20067;-66
2023/09/23 07:33:11;;;;;;;9.90;4.70;;;;;;;;;;5072986;28;20027;-69
2023/09/23 07:35:36;;;;;;;6.50;4.60;;;;;;;;;;5081200;28;20458;-68
2023/09/23 07:38:02;;;;;;;9.20;4.63;;;;;;;;;;5089496;28;20028;-68
2023/09/23 07:40:28;;;;;;;8.55;4.20;;;;;;;;;;5089068;28;20020;-69
2023/09/23 07:42:53;;;;;;;9.80;4.40;;;;;;;;;;5084058;28;20042;-69
2023/09/23 07:45:19;;;;;;;6.68;3.92;;;;;;;;;;5087309;28;20020;-69
2023/09/23 07:47:44;;;;;;;6.53;3.88;;;;;;;;;;5089066;28;20028;-69
2023/09/23 07:50:09;;;;;;;10.40;4.70;;;;;;;;;;5092270;28;20487;-69
2023/09/23 07:52:35;;;;;;;8.27;4.32;;;;;;;;;;5090893;28;20023;-69
2023/09/23 07:55:01;;;;;;;6.38;3.80;;;;;;;;;;5092094;28;20030;-68
2023/09/23 07:57:26;;;;;;;9.38;4.38;;;;;;;;;;5089103;28;20123;-69
2023/09/23 07:59:52;;;;;;;6.13;4.00;;;;;;;;;;5088536;28;20099;-69
2023/09/23 08:02:17;;;;;;;9.43;3.97;;;;;;;;;;5086916;28;20050;-69
2023/09/23 08:04:42;;;;;;;8.32;4.20;;;;;;;;;;5083483;28;20027;-69
2023/09/23 08:07:08;;;;;;;5.65;3.85;;;;;;;;;;5091244;28;20035;-69
2023/09/23 08:09:33;;;;;;;10.48;3.88;;;;;;;;;;5073681;28;20028;-69
2023/09/23 08:11:58;;;;;;;10.93;3.65;;;;;;;;;;5089648;28;20024;-68
2023/09/23 08:14:24;;;;;;;11.43;3.72;;;;;;;;;;5091058;28;20016;-69
2023/09/23 08:16:50;;;;;;;6.60;3.30;;;;;;;;;;5090716;28;20035;-69
2023/09/23 08:19:16;;;;;;;6.95;3.22;;;;;;;;;;5091406;28;20027;-69
2023/09/23 08:21:41;;;;;;;8.43;4.05;;;;;;;;;;5080818;28;20519;-68
2023/09/23 08:24:07;;;;;;;7.00;3.50;;;;;;;;;;5075667;28;20060;-68
2023/09/23 08:26:33;;;;;;;6.70;4.03;;;;;;;;;;5079823;28;20020;-66
2023/09/23 08:28:58;;;;;;;6.53;3.60;;;;;;;;;;5075778;28;20079;-68
2023/09/23 08:31:23;;;;;;;8.15;3.95;;;;;;;;;;5076197;28;20016;-66
2023/09/23 08:33:49;;;;;;;8.45;3.90;;;;;;;;;;5083313;28;20049;-67
2023/09/23 08:36:14;;;;;;;6.30;4.15;;;;;;;;;;5082578;28;20032;-68
2023/09/23 08:38:41;;;;;;;8.23;4.30;;;;;;;;;;5077460;28;20016;-68
2023/09/23 08:41:06;;;;;;;8.73;5.40;;;;;;;;;;5077530;28;20029;-67
2023/09/23 08:43:38;;;;;;;7.32;3.72;;;;;;;;;;5047083;28;20013;-68
2023/09/23 08:46:07;;;;;;;5.47;3.60;;;;;;;;;;5080113;28;20044;-69
2023/09/23 08:48:34;;;;;;;7.90;3.80;;;;;;;;;;5091199;28;20463;-68
2023/09/23 08:51:00;;;;;;;8.45;3.40;;;;;;;;;;5085217;28;20130;-69
2023/09/23 08:53:26;;;;;;;7.00;3.30;;;;;;;;;;5072013;28;20036;-68
2023/09/23 08:55:53;;;;;;;12.65;3.35;;;;;;;;;;5073740;28;20024;-68
2023/09/23 08:58:18;;;;;;;4.70;2.90;;;;;;;;;;5091111;28;20028;-68
2023/09/23 09:00:46;;;;;;;5.47;2.38;;;;;;;;;;5087455;28;20535;-68
2023/09/23 09:03:12;;;;;;;6.03;2.47;;;;;;;;;;5089163;28;20104;-68
2023/09/23 09:05:40;;;;;;;6.40;2.75;;;;;;;;;;5085737;28;20119;-68
2023/09/23 09:08:06;;;;;;;7.15;2.85;;;;;;;;;;5085386;28;20020;-69
2023/09/23 09:10:31;;;;;;;4.50;2.00;;;;;;;;;;5083027;28;20030;-68
2023/09/23 09:12:57;;;;;;;7.82;2.45;;;;;;;;;;5085150;28;20028;-68
2023/09/23 09:15:23;;;;;;;5.78;2.50;;;;;;;;;;5071580;28;20035;-68
2023/09/23 09:17:48;;;;;;;7.03;2.38;;;;;;;;;;5072799;28;20352;-67
2023/09/23 09:20:13;;;;;;;4.82;2.10;;;;;;;;;;5085517;28;20077;-68
2023/09/23 09:22:39;;;;;;;4.70;2.28;;;;;;;;;;5090833;28;20041;-67
2023/09/23 09:25:05;;;;;;;5.82;2.33;;;;;;;;;;5090510;28;20103;-67
2023/09/23 09:27:30;;;;;;;4.40;2.25;;;;;;;;;;5075192;28;20501;-68
2023/09/23 09:29:56;;;;;;;4.60;2.00;;;;;;;;;;5079767;28;20032;-67
2023/09/23 09:32:26;;;;;;;4.53;1.88;;;;;;;;;;5074112;28;20038;-68
2023/09/23 09:34:52;;;;;;;9.32;2.13;;;;;;;;;;5085043;28;20352;-68
2023/09/23 09:37:18;;;;;;;6.72;2.20;;;;;;;;;;5077408;28;20104;-68
2023/09/23 09:39:51;;;;;;;6.10;2.03;;;;;;;;;;5075396;28;20052;-68
2023/09/23 09:42:36;;;;;;;6.90;1.92;;;;;;;;;;5077979;28;20024;-68
2023/09/23 09:45:03;;;;;;;5.07;1.90;;;;;;;;;;5083830;28;20093;-68
2023/09/23 09:47:28;;;;;;;5.18;1.95;;;;;;;;;;5089669;28;20028;-68
2023/09/23 09:49:57;;;;;;;4.35;2.03;;;;;;;;;;5090117;28;20092;-67
2023/09/23 09:52:22;;;;;;;4.43;2.03;;;;;;;;;;5088400;28;20024;-68
2023/09/23 09:54:52;;;;;;;4.78;2.33;;;;;;;;;;5051444;28;20562;-68
2023/09/23 09:57:18;;;;;;;6.25;2.25;;;;;;;;;;5084186;28;20028;-68
2023/09/23 09:59:44;;;;;;;6.22;1.98;;;;;;;;;;5083782;28;20074;-68
2023/09/23 10:02:11;;;;;;;5.30;2.30;;;;;;;;;;5085707;28;20050;-68
2023/09/23 10:04:37;;;;;;;4.97;2.40;;;;;;;;;;5075111;28;20066;-68
2023/09/23 10:07:06;;;;;;;4.05;2.17;;;;;;;;;;5088298;28;20024;-68
2023/09/23 10:09:32;;;;;;;6.10;2.00;;;;;;;;;;5084693;28;20112;-68
2023/09/23 10:11:58;;;;;;;6.72;1.80;;;;;;;;;;5087832;28;20024;-68
2023/09/23 10:14:24;;;;;;;5.50;1.80;;;;;;;;;;5077038;28;20064;-68
2023/09/23 10:16:50;;;;;;;4.22;1.67;;;;;;;;;;5090317;28;20505;-68
2023/09/23 10:19:16;;;;;;;5.80;1.65;;;;;;;;;;5082624;28;20028;-68
2023/09/23 10:21:43;;;;;;;5.82;1.95;;;;;;;;;;5087696;28;20031;-68
2023/09/23 10:24:10;;;;;;;6.13;1.88;;;;;;;;;;5075226;28;20586;-68
2023/09/23 10:26:39;;;;;;;5.70;2.10;;;;;;;;;;5069563;28;20028;-68
2023/09/23 10:29:05;;;;;;;3.00;1.55;;;;;;;;;;5074247;28;20043;-68
2023/09/23 10:31:31;;;;;;;6.05;1.95;;;;;;;;;;5083926;28;20032;-68
2023/09/23 10:33:57;;;;;;;4.65;1.88;;;;;;;;;;5081205;28;20042;-68
2023/09/23 10:36:23;;;;;;;5.25;2.03;;;;;;;;;;5087053;28;20020;-68
2023/09/23 10:38:49;;;;;;;6.70;1.98;;;;;;;;;;5071665;28;20102;-68
2023/09/23 10:41:14;;;;;;;5.22;1.90;;;;;;;;;;5069678;28;20054;-67
2023/09/23 10:43:40;;;;;;;4.53;1.90;;;;;;;;;;5077973;28;20039;-67
2023/09/23 10:46:05;;;;;;;3.72;1.48;;;;;;;;;;5067633;28;20024;-67
2023/09/23 10:48:31;;;;;;;5.30;1.80;;;;;;;;;;5083627;28;20460;-67
2023/09/23 10:50:57;;;;;;;3.55;1.38;;;;;;;;;;5089085;28;20024;-69
2023/09/23 10:53:22;;;;;;;3.58;1.60;;;;;;;;;;5082674;28;20043;-68
2023/09/23 10:55:47;;;;;;;3.15;1.67;;;;;;;;;;5076961;28;20027;-68
2023/09/23 10:58:13;;;;;;;5.32;1.38;;;;;;;;;;5046815;28;20859;-68
2023/09/23 11:00:39;;;;;;;3.95;1.30;;;;;;;;;;5045196;28;20035;-69
2023/09/23 11:03:10;;;;;;;5.97;1.50;;;;;;;;;;5045548;28;20051;-68
2023/09/23 11:05:39;;;;;;;4.05;1.58;;;;;;;;;;5050898;28;20361;-67
2023/09/23 11:08:05;;;;;;;4.15;1.33;;;;;;;;;;5048041;28;20123;-68
2023/09/23 11:10:31;;;;;;;4.82;1.58;;;;;;;;;;5039818;28;20088;-69
2023/09/23 11:12:58;;;;;;;3.85;1.50;;;;;;;;;;5046170;28;20077;-68
2023/09/23 11:15:23;;;;;;;2.85;1.05;;;;;;;;;;5044024;28;20016;-68
2023/09/23 11:17:52;;;;;;;7.68;1.40;;;;;;;;;;5040437;28;20219;-69
2023/09/23 11:20:26;;;;;;;4.15;1.52;;;;;;;;;;5043859;28;20028;-69
2023/09/23 11:22:56;;;;;;;3.58;1.42;;;;;;;;;;5049288;28;20032;-68
2023/09/23 11:25:21;;;;;;;3.60;1.30;;;;;;;;;;5046439;28;20085;-68
2023/09/23 11:27:47;;;;;;;4.22;1.40;;;;;;;;;;5037917;28;20880;-68
2023/09/23 11:30:12;;;;;;;5.90;1.33;;;;;;;;;;5044312;28;20135;-68
2023/09/23 11:32:38;;;;;;;4.15;1.50;;;;;;;;;;5046897;28;20298;-66
2023/09/23 11:35:04;;;;;;;2.63;1.10;;;;;;;;;;5047797;28;20028;-68
2023/09/23 11:37:29;;;;;;;3.05;1.10;;;;;;;;;;5048837;28;20886;-68
2023/09/23 11:39:55;;;;;;;2.97;1.10;;;;;;;;;;5042246;28;20028;-68
2023/09/23 11:42:20;;;;;;;3.65;1.42;;;;;;;;;;5046023;28;20078;-69
2023/09/23 11:44:46;;;;;;;4.07;1.20;;;;;;;;;;5051575;28;20032;-68
2023/09/23 11:47:11;;;;;;;2.67;1.08;;;;;;;;;;5049018;28;20025;-68
2023/09/23 11:49:36;;;;;;;4.43;1.45;;;;;;;;;;5050711;28;20016;-67
2023/09/23 11:52:04;;;;;;;4.10;1.13;;;;;;;;;;5037873;28;20814;-68
2023/09/23 11:54:29;;;;;;;4.78;1.27;;;;;;;;;;5049181;28;20038;-69
2023/09/23 11:56:55;;;;;;;4.32;1.20;;;;;;;;;;5053788;28;20032;-69
2023/09/23 11:59:21;;;;;;;4.13;1.13;;;;;;;;;;5048220;28;20040;-68
2023/09/23 12:01:48;;;;;;;4.53;1.20;;;;;;;;;;5045907;28;20020;-68
2023/09/23 12:04:13;;;;;;;4.10;1.33;;;;;;;;;;5062935;28;20016;-68
2023/09/23 12:06:39;;;;;;;3.60;1.63;;;;;;;;;;5035325;28;20020;-68
2023/09/23 12:09:09;;;;;;;2.95;1.30;;;;;;;;;;5049418;28;20013;-68
2023/09/23 12:11:34;;;;;;;4.05;1.25;;;;;;;;;;5076845;28;20116;-68
2023/09/23 12:13:59;;;;;;;3.58;1.27;;;;;;;;;;5073504;28;20448;-69
2023/09/23 12:16:25;;;;;;;3.63;0.95;;;;;;;;;;5081488;28;20086;-68
2023/09/23 12:18:50;;;;;;;3.90;1.10;;;;;;;;;;5073353;28;20032;-69
2023/09/23 12:21:16;;;;;;;3.80;1.23;;;;;;;;;;5073303;28;20038;-69
2023/09/23 12:23:41;;;;;;;2.75;0.98;;;;;;;;;;5075097;28;20482;-68
2023/09/23 12:26:08;;;;;;;6.03;1.20;;;;;;;;;;5074969;28;20020;-68
2023/09/23 12:28:33;;;;;;;2.85;0.93;;;;;;;;;;5087462;28;20036;-67
2023/09/23 12:30:58;;;;;;;4.47;1.25;;;;;;;;;;5076065;28;20028;-68
2023/09/23 12:33:24;;;;;;;2.95;1.00;;;;;;;;;;5076399;28;20063;-69
2023/09/23 12:35:49;;;;;;;3.78;0.90;;;;;;;;;;5074805;28;20031;-68
2023/09/23 12:38:14;;;;;;;8.25;1.13;;;;;;;;;;5063340;28;20028;-68
2023/09/23 12:40:40;;;;;;;3.53;0.80;;;;;;;;;;5048467;28;20556;-68
2023/09/23 12:43:05;;;;;;;1.73;0.50;;;;;;;;;;5046614;28;20081;-68
2023/09/23 12:45:30;;;;;;;2.80;0.85;;;;;;;;;;5051459;28;20032;-68
2023/09/23 12:47:55;;;;;;;3.80;0.93;;;;;;;;;;5081073;28;20497;-68
2023/09/23 12:50:21;;;;;;;3.53;0.73;;;;;;;;;;5082087;28;20032;-68
2023/09/23 12:52:46;;;;;;;3.72;0.90;;;;;;;;;;5078384;28;20274;-68
2023/09/23 12:55:11;;;;;;;3.30;0.75;;;;;;;;;;5085537;28;20024;-68
2023/09/23 12:57:37;;;;;;;2.55;0.80;;;;;;;;;;5081065;28;20106;-68
2023/09/23 13:00:03;;;;;;;3.05;0.93;;;;;;;;;;5079632;28;20434;-68
2023/09/23 13:02:29;;;;;;;1.88;0.60;;;;;;;;;;5077912;28;20016;-69
2023/09/23 13:04:54;;;;;;;2.42;0.73;;;;;;;;;;5078605;28;20032;-68
2023/09/23 13:07:19;;;;;;;3.00;0.68;;;;;;;;;;5085220;28;20104;-68
2023/09/23 13:09:44;;;;;;;2.90;0.75;;;;;;;;;;5077776;28;20040;-68
2023/09/23 13:12:10;;;;;;;3.35;0.90;;;;;;;;;;5083743;28;20020;-68
2023/09/23 13:14:35;;;;;;;3.67;0.70;;;;;;;;;;5082519;28;20032;-69
2023/09/23 13:17:00;;;;;;;3.70;0.82;;;;;;;;;;5085626;28;20021;-68
2023/09/23 13:19:25;;;;;;;3.65;0.82;;;;;;;;;;5085303;28;20114;-68
2023/09/23 13:21:51;;;;;;;2.50;0.70;;;;;;;;;;5090664;28;20028;-68
2023/09/23 13:24:16;;;;;;;2.40;0.70;;;;;;;;;;5083316;28;20025;-68
2023/09/23 13:26:43;;;;;;;3.72;0.95;;;;;;;;;;5088232;28;20297;-68
2023/09/23 13:29:08;;;;;;;2.80;0.88;;;;;;;;;;5083886;28;20387;-68
2023/09/23 13:31:34;;;;;;;4.80;1.00;;;;;;;;;;5080408;28;20032;-68
2023/09/23 13:33:59;;;;;;;3.08;0.85;;;;;;;;;;5075009;28;20032;-68
2023/09/23 13:36:24;;;;;;;3.42;0.55;;;;;;;;;;5074976;28;20032;-69
2023/09/23 13:38:51;;;;;;;2.38;0.70;;;;;;;;;;5085771;28;20031;-68
2023/09/23 13:41:16;;;;;;;2.28;0.68;;;;;;;;;;5084394;28;20020;-68
2023/09/23 13:43:41;;;;;;;1.08;0.57;;;;;;;;;;5084767;28;20429;-69
2023/09/23 13:46:06;;;;;;;4.75;0.90;;;;;;;;;;5062851;28;20016;-69
2023/09/23 13:48:32;;;;;;;4.10;1.30;;;;;;;;;;5087532;28;20103;-68
2023/09/23 13:50:57;;;;;;;2.65;0.77;;;;;;;;;;5093120;28;20118;-69
2023/09/23 13:53:22;;;;;;;3.80;1.17;;;;;;;;;;5091855;28;20425;-68
2023/09/23 13:55:48;;;;;;;2.83;0.80;;;;;;;;;;5091142;28;20490;-68
2023/09/23 13:58:14;;;;;;;2.35;0.65;;;;;;;;;;5093515;28;20070;-69
2023/09/23 14:00:39;;;;;;;2.72;0.85;;;;;;;;;;5079652;28;20025;-68
2023/09/23 14:03:04;;;;;;;4.03;1.00;;;;;;;;;;5093670;28;20032;-69
2023/09/23 14:05:29;;;;;;;3.38;0.85;;;;;;;;;;5093227;28;20102;-68
2023/09/23 14:07:55;;;;;;;3.58;1.10;;;;;;;;;;5086681;28;20021;-68
2023/09/23 14:10:20;;;;;;;2.60;0.80;;;;;;;;;;5084830;28;20596;-68
2023/09/23 14:12:46;;;;;;;2.47;0.73;;;;;;;;;;5091050;28;20110;-68
2023/09/23 14:15:11;;;;;;;4.18;1.10;;;;;;;;;;5091751;28;20036;-68
2023/09/23 14:17:36;;;;;;;3.07;0.90;;;;;;;;;;5091622;28;20028;-68
2023/09/23 14:20:03;;;;;;;4.63;1.10;;;;;;;;;;5090323;28;20807;-68
2023/09/23 14:22:31;;;;;;;2.90;1.00;;;;;;;;;;5090762;28;20028;-68
2023/09/23 14:24:56;;;;;;;3.30;0.77;;;;;;;;;;5089594;28;20051;-68
2023/09/23 14:27:22;;;;;;;2.10;0.65;;;;;;;;;;5090969;28;20463;-68
2023/09/23 14:29:47;;;;;;;3.83;1.02;;;;;;;;;;5091822;28;20020;-68
2023/09/23 14:32:12;;;;;;;4.40;0.80;;;;;;;;;;5092863;28;20036;-68
2023/09/23 14:34:37;;;;;;;3.67;1.20;;;;;;;;;;5080609;28;20107;-68